Stella Polaris — PEBD — position and weather

sailwx.info

Track history (hours):
 
Tides and Currents Weather Stations Pressure Air Temp Water Temp Dewpoint Dewpoint Depression Visibility Wind Speed Wind Dir Waves Ship Positions

Stella Polaris

Last reported at 2015-Mar-24 11:33 UTC. Time now 2015-Mar-31 20:49 UTC.
Position N 50°35' E 000°21'.

Length 117 m; draft 7.7 m.

Type: Ship (hazmat cat A). MMSI: 245911000.

Date/timePositionNaut miles runAvg speedWind from/ knotsBaromVisibWave heightAir tempDewpointWater temp
2015-Mar-24 11:33N 50°35' E 000°21'1111.1
2015-Mar-24 10:33N 50°39' E 000°38'1713.4
2015-Mar-24 09:19N 50°49' E 000°59'1215.0
2015-Mar-24 08:33N 50°56' E 001°13'1515.1
2015-Mar-24 07:33N 51°06' E 001°31'1313.3
2015-Mar-24 06:33N 51°15' E 001°47'1212.0
2015-Mar-24 05:34N 51°24' E 001°59'1411.8
2015-Mar-24 04:24N 51°21' E 002°20'910.9
2015-Mar-24 03:32N 51°23' E 002°35'1110.9
2015-Mar-24 02:33N 51°23' E 002°52'1110.7
2015-Mar-24 01:33N 51°24' E 003°09'1111.3
2015-Mar-24 00:33N 51°25' E 003°27'9 9.5
2015-Mar-23 23:33N 51°24' E 003°43'6 6.3
2015-Mar-23 22:33N 51°20' E 003°49'3 3.5
2015-Mar-23 21:34N 51°16' E 003°50'4 4.2
2015-Mar-23 20:33N 51°12' E 003°48'0 0.0
2015-Mar-23 12:08N 51°12' E 003°48'0 0.0
2015-Mar-23 07:21N 51°12' E 003°48'0 0.0
2015-Mar-23 01:33N 51°12' E 003°48'0 0.0
2015-Mar-23 00:05N 51°12' E 003°48'0 0.0
2015-Mar-22 22:28N 51°12' E 003°48'0 0.0
2015-Mar-22 21:25N 51°12' E 003°48'0 0.0
2015-Mar-22 20:10N 51°12' E 003°48'0 0.0
2015-Mar-22 17:10N 51°12' E 003°48'0 0.0
2015-Mar-22 15:16N 51°12' E 003°48'0 0.0
2015-Mar-22 12:12N 51°12' E 003°48'0 0.0
2015-Mar-22 10:27N 51°12' E 003°48'0 0.0
2015-Mar-22 08:06N 51°12' E 003°48'0 0.0
2015-Mar-22 07:21N 51°12' E 003°48'0 0.0
2015-Mar-22 05:21N 51°12' E 003°48'0 0.0
2015-Mar-22 04:03N 51°12' E 003°48'0 0.0
2015-Mar-21 23:18N 51°12' E 003°48'0 0.0
2015-Mar-21 21:21N 51°12' E 003°48'0 0.0
2015-Mar-21 20:30N 51°12' E 003°48'0 0.0
2015-Mar-21 16:33N 51°12' E 003°48'5 5.1
2015-Mar-21 15:33N 51°17' E 003°50'3 2.6
2015-Mar-21 14:34N 51°20' E 003°49'5 5.1
2015-Mar-21 13:34N 51°23' E 003°43'7 6.7
2015-Mar-21 12:33N 51°27' E 003°34'1313.3
2015-Mar-21 11:33N 51°38' E 003°21'1410.6
2015-Mar-21 10:12N 51°52' E 003°18'42712.6
2015-Mar-20 00:28N 57°47' E 010°08'1314.2
2015-Mar-19 23:33N 57°49' E 010°32'1313.1
2015-Mar-19 22:33N 57°44' E 010°55'1414.2
2015-Mar-19 21:34N 57°34' E 011°14'1413.8
2015-Mar-19 20:33N 57°23' E 011°29'1413.9
2015-Mar-19 19:34N 57°10' E 011°38'1413.6
2015-Mar-19 18:34N 56°57' E 011°46'1313.3
2015-Mar-19 17:33N 56°45' E 011°53'1413.4
2015-Mar-19 16:33N 56°33' E 011°41'10112.7
2015-Mar-19 08:33N 54°55' E 010°55'1413.5
2015-Mar-19 07:33N 54°42' E 010°55'1514.6
2015-Mar-19 06:33N 54°35' E 011°17'1413.9
2015-Mar-19 05:33N 54°29' E 011°38'1313.1
2015-Mar-19 04:33N 54°26' E 012°00'1211.7
2015-Mar-19 03:33N 54°35' E 012°14'1313.1
2015-Mar-19 02:33N 54°44' E 012°31'1313.3
2015-Mar-19 01:33N 54°49' E 012°52'1313.4
2015-Mar-19 00:33N 54°54' E 013°14'1313.4
2015-Mar-18 23:33N 54°58' E 013°36'1413.6
2015-Mar-18 22:34N 55°03' E 013°58'1313.0
2015-Mar-18 21:33N 55°11' E 014°15'1413.6
2015-Mar-18 20:34N 55°22' E 014°30'1313.4
2015-Mar-18 19:33N 55°30' E 014°49'1413.5
2015-Mar-18 18:33N 55°37' E 015°10'1413.7
2015-Mar-18 17:33N 55°44' E 015°31'1413.6
2015-Mar-18 16:33N 55°50' E 015°52'  
2015-Mar-15 14:33N 59°23' E 022°12'1413.7
2015-Mar-15 13:33N 59°32' E 022°34'1913.9
2015-Mar-15 12:12N 59°37' E 023°10'913.8
2015-Mar-15 11:33N 59°39' E 023°27'1413.8
2015-Mar-15 10:33N 59°43' E 023°53'1413.8
2015-Mar-15 09:33N 59°47' E 024°20'1413.7
2015-Mar-15 08:33N 59°50' E 024°46'1413.6
2015-Mar-15 07:33N 59°52' E 025°12'1413.6
2015-Mar-15 06:33N 59°55' E 025°39'1413.0
2015-Mar-15 05:28N 60°02' E 026°04'1213.6
2015-Mar-15 04:33N 60°10' E 026°21'1313.0
2015-Mar-15 03:33N 60°20' E 026°38'10 9.9
2015-Mar-15 02:33N 60°26' E 026°55'0 0.0
2015-Mar-15 01:31N 60°26' E 026°55'0 0.0
2015-Mar-15 00:31N 60°26' E 026°55'0 0.0
2015-Mar-14 23:25N 60°26' E 026°55'0 0.0
2015-Mar-14 22:31N 60°26' E 026°55'0 0.0
2015-Mar-14 21:31N 60°26' E 026°55'0 0.0
2015-Mar-14 20:31N 60°26' E 026°55'0 0.0
2015-Mar-14 19:31N 60°26' E 026°55'0 0.0
2015-Mar-14 18:28N 60°26' E 026°55'0 0.0
2015-Mar-14 17:31N 60°26' E 026°55'0 0.0
2015-Mar-14 16:33N 60°26' E 026°55'0 0.0
2015-Mar-14 15:30N 60°26' E 026°55'0 0.0
2015-Mar-14 14:33N 60°26' E 026°55'0 0.0
2015-Mar-14 13:33N 60°26' E 026°55'0 0.0
2015-Mar-14 12:33N 60°26' E 026°55'  
Track history (hours):
 
Tides and Currents Weather Stations Pressure Air Temp Water Temp Dewpoint Dewpoint Depression Visibility Wind Speed Wind Dir Waves Ship Positions

Stella Polaris

Last reported at 2015-Mar-24 11:33 UTC. Time now 2015-Mar-31 20:49 UTC.
Position N 50°35' E 000°21'.

Length 117 m; draft 7.7 m.

Type: Ship (hazmat cat A). MMSI: 245911000.

Date/timePositionNaut miles runAvg speedWind from/ knotsBaromVisibWave heightAir tempDewpointWater temp
2015-Mar-24 11:33N 50°35' E 000°21'1111.1
2015-Mar-24 10:33N 50°39' E 000°38'1713.4
2015-Mar-24 09:19N 50°49' E 000°59'1215.0
2015-Mar-24 08:33N 50°56' E 001°13'1515.1
2015-Mar-24 07:33N 51°06' E 001°31'1313.3
2015-Mar-24 06:33N 51°15' E 001°47'1212.0
2015-Mar-24 05:34N 51°24' E 001°59'1411.8
2015-Mar-24 04:24N 51°21' E 002°20'910.9
2015-Mar-24 03:32N 51°23' E 002°35'1110.9
2015-Mar-24 02:33N 51°23' E 002°52'1110.7
2015-Mar-24 01:33N 51°24' E 003°09'1111.3
2015-Mar-24 00:33N 51°25' E 003°27'9 9.5
2015-Mar-23 23:33N 51°24' E 003°43'6 6.3
2015-Mar-23 22:33N 51°20' E 003°49'3 3.5
2015-Mar-23 21:34N 51°16' E 003°50'4 4.2
2015-Mar-23 20:33N 51°12' E 003°48'0 0.0
2015-Mar-23 12:08N 51°12' E 003°48'0 0.0
2015-Mar-23 07:21N 51°12' E 003°48'0 0.0
2015-Mar-23 01:33N 51°12' E 003°48'0 0.0
2015-Mar-23 00:05N 51°12' E 003°48'0 0.0
2015-Mar-22 22:28N 51°12' E 003°48'0 0.0
2015-Mar-22 21:25N 51°12' E 003°48'0 0.0
2015-Mar-22 20:10N 51°12' E 003°48'0 0.0
2015-Mar-22 17:10N 51°12' E 003°48'0 0.0
2015-Mar-22 15:16N 51°12' E 003°48'0 0.0
2015-Mar-22 12:12N 51°12' E 003°48'0 0.0
2015-Mar-22 10:27N 51°12' E 003°48'0 0.0
2015-Mar-22 08:06N 51°12' E 003°48'0 0.0
2015-Mar-22 07:21N 51°12' E 003°48'0 0.0
2015-Mar-22 05:21N 51°12' E 003°48'0 0.0
2015-Mar-22 04:03N 51°12' E 003°48'0 0.0
2015-Mar-21 23:18N 51°12' E 003°48'0 0.0
2015-Mar-21 21:21N 51°12' E 003°48'0 0.0
2015-Mar-21 20:30N 51°12' E 003°48'0 0.0
2015-Mar-21 16:33N 51°12' E 003°48'5 5.1
2015-Mar-21 15:33N 51°17' E 003°50'3 2.6
2015-Mar-21 14:34N 51°20' E 003°49'5 5.1
2015-Mar-21 13:34N 51°23' E 003°43'7 6.7
2015-Mar-21 12:33N 51°27' E 003°34'1313.3
2015-Mar-21 11:33N 51°38' E 003°21'1410.6
2015-Mar-21 10:12N 51°52' E 003°18'42712.6
2015-Mar-20 00:28N 57°47' E 010°08'1314.2
2015-Mar-19 23:33N 57°49' E 010°32'1313.1
2015-Mar-19 22:33N 57°44' E 010°55'1414.2
2015-Mar-19 21:34N 57°34' E 011°14'1413.8
2015-Mar-19 20:33N 57°23' E 011°29'1413.9
2015-Mar-19 19:34N 57°10' E 011°38'1413.6
2015-Mar-19 18:34N 56°57' E 011°46'1313.3
2015-Mar-19 17:33N 56°45' E 011°53'1413.4
2015-Mar-19 16:33N 56°33' E 011°41'10112.7
2015-Mar-19 08:33N 54°55' E 010°55'1413.5
2015-Mar-19 07:33N 54°42' E 010°55'1514.6
2015-Mar-19 06:33N 54°35' E 011°17'1413.9
2015-Mar-19 05:33N 54°29' E 011°38'1313.1
2015-Mar-19 04:33N 54°26' E 012°00'1211.7
2015-Mar-19 03:33N 54°35' E 012°14'1313.1
2015-Mar-19 02:33N 54°44' E 012°31'1313.3
2015-Mar-19 01:33N 54°49' E 012°52'1313.4
2015-Mar-19 00:33N 54°54' E 013°14'1313.4
2015-Mar-18 23:33N 54°58' E 013°36'1413.6
2015-Mar-18 22:34N 55°03' E 013°58'1313.0
2015-Mar-18 21:33N 55°11' E 014°15'1413.6
2015-Mar-18 20:34N 55°22' E 014°30'1313.4
2015-Mar-18 19:33N 55°30' E 014°49'1413.5
2015-Mar-18 18:33N 55°37' E 015°10'1413.7
2015-Mar-18 17:33N 55°44' E 015°31'1413.6
2015-Mar-18 16:33N 55°50' E 015°52'  
2015-Mar-15 14:33N 59°23' E 022°12'1413.7
2015-Mar-15 13:33N 59°32' E 022°34'1913.9
2015-Mar-15 12:12N 59°37' E 023°10'913.8
2015-Mar-15 11:33N 59°39' E 023°27'1413.8
2015-Mar-15 10:33N 59°43' E 023°53'1413.8
2015-Mar-15 09:33N 59°47' E 024°20'1413.7
2015-Mar-15 08:33N 59°50' E 024°46'1413.6
2015-Mar-15 07:33N 59°52' E 025°12'1413.6
2015-Mar-15 06:33N 59°55' E 025°39'1413.0
2015-Mar-15 05:28N 60°02' E 026°04'1213.6
2015-Mar-15 04:33N 60°10' E 026°21'1313.0
2015-Mar-15 03:33N 60°20' E 026°38'10 9.9
2015-Mar-15 02:33N 60°26' E 026°55'0 0.0
2015-Mar-15 01:31N 60°26' E 026°55'0 0.0
2015-Mar-15 00:31N 60°26' E 026°55'0 0.0
2015-Mar-14 23:25N 60°26' E 026°55'0 0.0
2015-Mar-14 22:31N 60°26' E 026°55'0 0.0
2015-Mar-14 21:31N 60°26' E 026°55'0 0.0
2015-Mar-14 20:31N 60°26' E 026°55'0 0.0
2015-Mar-14 19:31N 60°26' E 026°55'0 0.0
2015-Mar-14 18:28N 60°26' E 026°55'0 0.0
2015-Mar-14 17:31N 60°26' E 026°55'0 0.0
2015-Mar-14 16:33N 60°26' E 026°55'0 0.0
2015-Mar-14 15:30N 60°26' E 026°55'0 0.0
2015-Mar-14 14:33N 60°26' E 026°55'0 0.0
2015-Mar-14 13:33N 60°26' E 026°55'0 0.0
2015-Mar-14 12:33N 60°26' E 026°55'  

Dump ship's entire track history